sensor_id;sensor_type;location;lat;lon;timestamp;pressure;altitude;pressure_sealevel;temperature;humidity
50356;BME280;36264;51.296;-0.602;2023-01-01T00:01:29;100106.25;;;14.38;100.00
50356;BME280;36264;51.296;-0.602;2023-01-01T00:03:56;100114.09;;;14.38;100.00
50356;BME280;36264;51.296;-0.602;2023-01-01T00:06:22;100111.16;;;14.28;100.00
50356;BME280;36264;51.296;-0.602;2023-01-01T00:08:48;100128.00;;;14.22;100.00
50356;BME280;36264;51.296;-0.602;2023-01-01T00:11:33;100125.66;;;14.18;100.00
50356;BME280;36264;51.296;-0.602;2023-01-01T00:13:59;100124.50;;;14.07;100.00
50356;BME280;36264;51.296;-0.602;2023-01-01T00:16:24;100135.59;;;14.11;100.00
50356;BME280;36264;51.296;-0.602;2023-01-01T00:18:49;100123.81;;;14.04;100.00
50356;BME280;36264;51.296;-0.602;2023-01-01T00:21:15;100122.88;;;14.05;100.00
50356;BME280;36264;51.296;-0.602;2023-01-01T00:23:41;100123.81;;;14.04;100.00
50356;BME280;36264;51.296;-0.602;2023-01-01T00:26:12;100113.38;;;14.20;100.00
50356;BME280;36264;51.296;-0.602;2023-01-01T00:28:37;100123.91;;;14.02;100.00
50356;BME280;36264;51.296;-0.602;2023-01-01T00:31:07;100133.75;;;14.13;100.00
50356;BME280;36264;51.296;-0.602;2023-01-01T00:33:33;100145.06;;;13.98;100.00
50356;BME280;36264;51.296;-0.602;2023-01-01T00:36:08;100133.94;;;14.10;100.00
50356;BME280;36264;51.296;-0.602;2023-01-01T00:38:34;100140.50;;;14.01;100.00
50356;BME280;36264;51.296;-0.602;2023-01-01T00:40:59;100140.75;;;13.97;100.00
50356;BME280;36264;51.296;-0.602;2023-01-01T00:43:25;100160.09;;;13.92;100.00
50356;BME280;36264;51.296;-0.602;2023-01-01T00:45:50;100145.38;;;13.91;100.00
50356;BME280;36264;51.296;-0.602;2023-01-01T00:48:19;100159.19;;;13.93;100.00
50356;BME280;36264;51.296;-0.602;2023-01-01T00:50:46;100161.03;;;13.91;100.00
50356;BME280;36264;51.296;-0.602;2023-01-01T00:53:11;100152.56;;;13.88;100.00
50356;BME280;36264;51.296;-0.602;2023-01-01T00:55:38;100169.22;;;14.01;100.00
50356;BME280;36264;51.296;-0.602;2023-01-01T00:58:03;100167.19;;;13.90;100.00
50356;BME280;36264;51.296;-0.602;2023-01-01T01:00:29;100177.63;;;13.90;100.00
50356;BME280;36264;51.296;-0.602;2023-01-01T01:02:54;100172.47;;;13.89;100.00
50356;BME280;36264;51.296;-0.602;2023-01-01T01:05:19;100184.38;;;13.79;100.00
50356;BME280;36264;51.296;-0.602;2023-01-01T01:07:45;100191.31;;;13.78;100.00
50356;BME280;36264;51.296;-0.602;2023-01-01T01:10:10;100182.66;;;13.77;100.00
50356;BME280;36264;51.296;-0.602;2023-01-01T01:12:36;100185.78;;;13.84;100.00
50356;BME280;36264;51.296;-0.602;2023-01-01T01:15:03;100198.16;;;13.81;100.00
50356;BME280;36264;51.296;-0.602;2023-01-01T01:17:28;100200.84;;;13.79;100.00
50356;BME280;36264;51.296;-0.602;2023-01-01T01:19:54;100204.63;;;13.73;100.00
50356;BME280;36264;51.296;-0.602;2023-01-01T01:22:19;100217.44;;;13.78;100.00
50356;BME280;36264;51.296;-0.602;2023-01-01T01:24:45;100213.97;;;13.77;100.00
50356;BME280;36264;51.296;-0.602;2023-01-01T01:27:10;100227.03;;;13.77;100.00
50356;BME280;36264;51.296;-0.602;2023-01-01T01:29:36;100224.50;;;13.76;100.00
50356;BME280;36264;51.296;-0.602;2023-01-01T01:32:01;100227.88;;;13.78;100.00
50356;BME280;36264;51.296;-0.602;2023-01-01T01:34:26;100222.81;;;13.75;100.00
50356;BME280;36264;51.296;-0.602;2023-01-01T01:36:52;100229.28;;;13.68;100.00
50356;BME280;36264;51.296;-0.602;2023-01-01T01:39:17;100234.63;;;13.82;100.00
50356;BME280;36264;51.296;-0.602;2023-01-01T01:41:43;100228.03;;;13.75;100.00
50356;BME280;36264;51.296;-0.602;2023-01-01T01:47:36;100241.88;;;13.77;100.00
50356;BME280;36264;51.296;-0.602;2023-01-01T01:53:16;100256.03;;;13.89;100.00
50356;BME280;36264;51.296;-0.602;2023-01-01T01:55:50;100259.66;;;13.86;100.00
50356;BME280;36264;51.296;-0.602;2023-01-01T01:58:16;100273.41;;;13.72;100.00
50356;BME280;36264;51.296;-0.602;2023-01-01T02:00:42;100270.22;;;13.67;100.00
50356;BME280;36264;51.296;-0.602;2023-01-01T02:03:11;100278.25;;;13.80;100.00
50356;BME280;36264;51.296;-0.602;2023-01-01T02:05:39;100283.63;;;13.77;100.00
50356;BME280;36264;51.296;-0.602;2023-01-01T02:08:06;100288.13;;;13.73;100.00
50356;BME280;36264;51.296;-0.602;2023-01-01T02:10:32;100286.53;;;13.71;100.00
50356;BME280;36264;51.296;-0.602;2023-01-01T02:12:58;100288.72;;;13.63;100.00
50356;BME280;36264;51.296;-0.602;2023-01-01T02:15:28;100294.22;;;13.74;100.00
50356;BME280;36264;51.296;-0.602;2023-01-01T02:18:15;100302.81;;;13.76;100.00
50356;BME280;36264;51.296;-0.602;2023-01-01T02:21:05;100311.63;;;13.73;100.00
50356;BME280;36264;51.296;-0.602;2023-01-01T02:29:36;100328.16;;;13.74;100.00
50356;BME280;36264;51.296;-0.602;2023-01-01T02:32:13;100321.16;;;13.74;100.00
50356;BME280;36264;51.296;-0.602;2023-01-01T02:34:45;100322.19;;;13.72;100.00
50356;BME280;36264;51.296;-0.602;2023-01-01T02:37:13;100321.53;;;13.67;100.00
50356;BME280;36264;51.296;-0.602;2023-01-01T02:39:46;100336.44;;;13.65;100.00
50356;BME280;36264;51.296;-0.602;2023-01-01T02:42:14;100332.59;;;13.54;100.00
50356;BME280;36264;51.296;-0.602;2023-01-01T02:44:43;100343.97;;;13.53;100.00
50356;BME280;36264;51.296;-0.602;2023-01-01T02:47:15;100337.28;;;13.48;100.00
50356;BME280;36264;51.296;-0.602;2023-01-01T02:49:47;100338.75;;;13.53;100.00
50356;BME280;36264;51.296;-0.602;2023-01-01T02:52:25;100337.34;;;13.46;100.00
50356;BME280;36264;51.296;-0.602;2023-01-01T02:55:24;100340.53;;;13.53;100.00
50356;BME280;36264;51.296;-0.602;2023-01-01T02:58:06;100342.41;;;13.49;100.00
50356;BME280;36264;51.296;-0.602;2023-01-01T03:00:57;100346.88;;;13.47;100.00
50356;BME280;36264;51.296;-0.602;2023-01-01T03:14:39;100344.88;;;13.52;100.00
50356;BME280;36264;51.296;-0.602;2023-01-01T03:17:11;100348.56;;;13.48;100.00
50356;BME280;36264;51.296;-0.602;2023-01-01T03:19:42;100346.81;;;13.30;100.00
50356;BME280;36264;51.296;-0.602;2023-01-01T03:22:11;100355.03;;;13.22;100.00
50356;BME280;36264;51.296;-0.602;2023-01-01T03:24:46;100348.34;;;13.16;100.00
50356;BME280;36264;51.296;-0.602;2023-01-01T03:27:17;100356.41;;;13.12;100.00
50356;BME280;36264;51.296;-0.602;2023-01-01T03:29:43;100357.81;;;13.00;100.00
50356;BME280;36264;51.296;-0.602;2023-01-01T03:32:12;100363.34;;;13.11;100.00
50356;BME280;36264;51.296;-0.602;2023-01-01T03:34:43;100364.50;;;13.05;100.00
50356;BME280;36264;51.296;-0.602;2023-01-01T03:37:14;100367.13;;;13.05;100.00
50356;BME280;36264;51.296;-0.602;2023-01-01T03:39:47;100363.41;;;13.10;100.00
50356;BME280;36264;51.296;-0.602;2023-01-01T03:42:27;100366.81;;;13.12;100.00
50356;BME280;36264;51.296;-0.602;2023-01-01T03:45:00;100363.50;;;13.08;100.00
50356;BME280;36264;51.296;-0.602;2023-01-01T03:47:28;100375.22;;;12.99;100.00
50356;BME280;36264;51.296;-0.602;2023-01-01T03:49:55;100377.63;;;13.04;100.00
50356;BME280;36264;51.296;-0.602;2023-01-01T03:55:30;100384.06;;;13.14;100.00
50356;BME280;36264;51.296;-0.602;2023-01-01T04:00:34;100389.03;;;13.01;100.00
50356;BME280;36264;51.296;-0.602;2023-01-01T04:03:21;100392.38;;;13.03;100.00
50356;BME280;36264;51.296;-0.602;2023-01-01T04:05:47;100409.47;;;12.92;100.00
50356;BME280;36264;51.296;-0.602;2023-01-01T04:08:14;100407.97;;;13.05;100.00
50356;BME280;36264;51.296;-0.602;2023-01-01T04:10:53;100406.63;;;13.15;100.00
50356;BME280;36264;51.296;-0.602;2023-01-01T04:13:20;100413.56;;;12.97;100.00
50356;BME280;36264;51.296;-0.602;2023-01-01T04:15:46;100424.19;;;12.93;100.00
50356;BME280;36264;51.296;-0.602;2023-01-01T04:18:11;100417.06;;;12.96;100.00
50356;BME280;36264;51.296;-0.602;2023-01-01T04:20:36;100417.06;;;12.96;100.00
50356;BME280;36264;51.296;-0.602;2023-01-01T04:23:02;100414.25;;;13.01;100.00
50356;BME280;36264;51.296;-0.602;2023-01-01T04:25:29;100417.63;;;13.03;100.00
50356;BME280;36264;51.296;-0.602;2023-01-01T04:27:54;100417.22;;;12.93;100.00
50356;BME280;36264;51.296;-0.602;2023-01-01T04:30:20;100422.28;;;12.96;100.00
50356;BME280;36264;51.296;-0.602;2023-01-01T04:32:45;100429.91;;;13.01;100.00
50356;BME280;36264;51.296;-0.602;2023-01-01T04:35:12;100429.63;;;13.07;100.00
50356;BME280;36264;51.296;-0.602;2023-01-01T04:37:39;100427.97;;;13.04;100.00
50356;BME280;36264;51.296;-0.602;2023-01-01T04:40:06;100435.81;;;13.04;100.00
50356;BME280;36264;51.296;-0.602;2023-01-01T04:42:32;100426.59;;;12.97;100.00
50356;BME280;36264;51.296;-0.602;2023-01-01T04:44:57;100435.31;;;12.96;100.00
50356;BME280;36264;51.296;-0.602;2023-01-01T04:47:23;100432.66;;;12.98;100.00
50356;BME280;36264;51.296;-0.602;2023-01-01T04:49:51;100437.09;;;12.96;100.00
50356;BME280;36264;51.296;-0.602;2023-01-01T04:52:16;100455.16;;;12.99;100.00
50356;BME280;36264;51.296;-0.602;2023-01-01T04:54:41;100445.59;;;12.99;100.00
50356;BME280;36264;51.296;-0.602;2023-01-01T04:57:07;100441.84;;;13.05;100.00
50356;BME280;36264;51.296;-0.602;2023-01-01T04:59:32;100438.69;;;12.98;100.00
50356;BME280;36264;51.296;-0.602;2023-01-01T05:01:57;100444.91;;;12.96;100.00
50356;BME280;36264;51.296;-0.602;2023-01-01T05:04:23;100444.75;;;12.99;100.00
50356;BME280;36264;51.296;-0.602;2023-01-01T05:06:48;100446.59;;;12.97;100.00
50356;BME280;36264;51.296;-0.602;2023-01-01T05:09:14;100476.81;;;13.01;100.00
50356;BME280;36264;51.296;-0.602;2023-01-01T05:11:39;100469.06;;;12.99;100.00
50356;BME280;36264;51.296;-0.602;2023-01-01T05:14:05;100480.69;;;13.11;100.00
50356;BME280;36264;51.296;-0.602;2023-01-01T05:16:34;100485.47;;;13.20;100.00
50356;BME280;36264;51.296;-0.602;2023-01-01T05:19:00;100487.69;;;13.11;100.00
50356;BME280;36264;51.296;-0.602;2023-01-01T05:21:30;100484.56;;;13.21;100.00
50356;BME280;36264;51.296;-0.602;2023-01-01T05:23:58;100494.22;;;13.19;100.00
50356;BME280;36264;51.296;-0.602;2023-01-01T05:26:26;100493.09;;;13.25;100.00
50356;BME280;36264;51.296;-0.602;2023-01-01T05:28:53;100493.31;;;13.20;100.00
50356;BME280;36264;51.296;-0.602;2023-01-01T05:31:21;100491.97;;;13.31;100.00
50356;BME280;36264;51.296;-0.602;2023-01-01T05:33:47;100502.97;;;13.18;100.00
50356;BME280;36264;51.296;-0.602;2023-01-01T05:36:15;100497.28;;;13.29;100.00
50356;BME280;36264;51.296;-0.602;2023-01-01T05:38:41;100509.66;;;13.24;100.00
50356;BME280;36264;51.296;-0.602;2023-01-01T05:41:08;100504.94;;;13.32;100.00
50356;BME280;36264;51.296;-0.602;2023-01-01T05:43:34;100510.53;;;13.25;100.00
50356;BME280;36264;51.296;-0.602;2023-01-01T05:46:04;100499.25;;;13.43;100.00
50356;BME280;36264;51.296;-0.602;2023-01-01T05:48:31;100505.75;;;13.34;100.00
50356;BME280;36264;51.296;-0.602;2023-01-01T05:51:12;100497.28;;;13.48;100.00
50356;BME280;36264;51.296;-0.602;2023-01-01T05:53:38;100504.22;;;13.29;100.00
50356;BME280;36264;51.296;-0.602;2023-01-01T05:56:04;100506.06;;;13.27;100.00
50356;BME280;36264;51.296;-0.602;2023-01-01T05:58:33;100521.47;;;13.33;100.00
50356;BME280;36264;51.296;-0.602;2023-01-01T06:03:34;100516.84;;;13.19;100.00
50356;BME280;36264;51.296;-0.602;2023-01-01T06:06:11;100525.63;;;13.37;100.00
50356;BME280;36264;51.296;-0.602;2023-01-01T06:08:36;100515.81;;;13.23;100.00
50356;BME280;36264;51.296;-0.602;2023-01-01T06:11:04;100533.72;;;13.31;100.00
50356;BME280;36264;51.296;-0.602;2023-01-01T06:13:30;100546.09;;;13.26;100.00
50356;BME280;36264;51.296;-0.602;2023-01-01T06:15:57;100551.38;;;13.24;100.00
50356;BME280;36264;51.296;-0.602;2023-01-01T06:18:23;100549.63;;;13.25;100.00
50356;BME280;36264;51.296;-0.602;2023-01-01T06:20:48;100552.53;;;13.18;100.00
50356;BME280;36264;51.296;-0.602;2023-01-01T06:23:14;100532.69;;;13.14;100.00
50356;BME280;36264;51.296;-0.602;2023-01-01T06:25:39;100538.72;;;13.16;100.00
50356;BME280;36264;51.296;-0.602;2023-01-01T06:28:04;100552.59;;;13.17;100.00
50356;BME280;36264;51.296;-0.602;2023-01-01T06:30:30;100550.81;;;13.17;100.00
50356;BME280;36264;51.296;-0.602;2023-01-01T06:32:58;100546.31;;;13.21;100.00
50356;BME280;36264;51.296;-0.602;2023-01-01T06:35:24;100556.16;;;13.14;100.00
50356;BME280;36264;51.296;-0.602;2023-01-01T06:37:49;100565.84;;;13.12;100.00
50356;BME280;36264;51.296;-0.602;2023-01-01T06:40:14;100572.88;;;13.10;100.00
50356;BME280;36264;51.296;-0.602;2023-01-01T06:42:40;100571.94;;;13.11;100.00
50356;BME280;36264;51.296;-0.602;2023-01-01T06:45:05;100584.25;;;13.28;100.00
50356;BME280;36264;51.296;-0.602;2023-01-01T06:47:34;100583.38;;;13.48;100.00
50356;BME280;36264;51.296;-0.602;2023-01-01T06:50:02;100594.94;;;13.43;100.00
50356;BME280;36264;51.296;-0.602;2023-01-01T06:52:28;100605.25;;;13.25;100.00
50356;BME280;36264;51.296;-0.602;2023-01-01T06:54:53;100620.91;;;13.25;100.00
50356;BME280;36264;51.296;-0.602;2023-01-01T06:57:18;100621.72;;;13.26;100.00
50356;BME280;36264;51.296;-0.602;2023-01-01T06:59:44;100622.53;;;13.28;100.00
50356;BME280;36264;51.296;-0.602;2023-01-01T07:02:10;100629.97;;;13.37;100.00
50356;BME280;36264;51.296;-0.602;2023-01-01T07:04:36;100621.59;;;13.29;100.00
50356;BME280;36264;51.296;-0.602;2023-01-01T07:07:01;100640.78;;;13.28;100.00
50356;BME280;36264;51.296;-0.602;2023-01-01T07:09:27;100635.34;;;13.34;100.00
50356;BME280;36264;51.296;-0.602;2023-01-01T07:11:52;100644.94;;;13.32;100.00
50356;BME280;36264;51.296;-0.602;2023-01-01T07:14:17;100635.44;;;13.31;100.00
50356;BME280;36264;51.296;-0.602;2023-01-01T07:16:43;100632.84;;;13.31;100.00
50356;BME280;36264;51.296;-0.602;2023-01-01T07:19:08;100621.59;;;13.29;100.00
50356;BME280;36264;51.296;-0.602;2023-01-01T07:21:40;100614.03;;;13.43;100.00
50356;BME280;36264;51.296;-0.602;2023-01-01T07:24:12;100623.97;;;13.35;100.00
50356;BME280;36264;51.296;-0.602;2023-01-01T07:26:38;100615.53;;;13.28;100.00
50356;BME280;36264;51.296;-0.602;2023-01-01T07:29:05;100629.34;;;13.30;100.00
50356;BME280;36264;51.296;-0.602;2023-01-01T07:31:31;100631.91;;;13.32;100.00
50356;BME280;36264;51.296;-0.602;2023-01-01T07:33:56;100630.22;;;13.31;100.00
50356;BME280;36264;51.296;-0.602;2023-01-01T07:36:21;100638.31;;;13.25;100.00
50356;BME280;36264;51.296;-0.602;2023-01-01T07:38:47;100644.44;;;13.23;100.00
50356;BME280;36264;51.296;-0.602;2023-01-01T07:41:12;100638.38;;;13.23;100.00
50356;BME280;36264;51.296;-0.602;2023-01-01T07:43:37;100628.00;;;13.21;100.00
50356;BME280;36264;51.296;-0.602;2023-01-01T07:46:03;100632.44;;;13.19;100.00
50356;BME280;36264;51.296;-0.602;2023-01-01T07:48:29;100640.19;;;13.21;100.00
50356;BME280;36264;51.296;-0.602;2023-01-01T07:50:54;100633.16;;;13.23;100.00
50356;BME280;36264;51.296;-0.602;2023-01-01T07:53:20;100654.22;;;13.18;100.00
50356;BME280;36264;51.296;-0.602;2023-01-01T07:55:45;100652.97;;;13.27;100.00
50356;BME280;36264;51.296;-0.602;2023-01-01T07:58:11;100649.44;;;13.28;100.00
50356;BME280;36264;51.296;-0.602;2023-01-01T08:00:37;100643.06;;;13.35;100.00
50356;BME280;36264;51.296;-0.602;2023-01-01T08:03:03;100645.88;;;13.31;100.00
50356;BME280;36264;51.296;-0.602;2023-01-01T08:05:28;100662.50;;;13.28;100.00
50356;BME280;36264;51.296;-0.602;2023-01-01T08:07:54;100653.59;;;13.34;100.00
50356;BME280;36264;51.296;-0.602;2023-01-01T08:10:20;100652.66;;;13.35;100.00
50356;BME280;36264;51.296;-0.602;2023-01-01T08:12:45;100651.94;;;13.31;100.00
50356;BME280;36264;51.296;-0.602;2023-01-01T08:15:11;100655.56;;;13.27;100.00
50356;BME280;36264;51.296;-0.602;2023-01-01T08:17:37;100664.41;;;13.25;100.00
50356;BME280;36264;51.296;-0.602;2023-01-01T08:20:03;100666.94;;;13.26;100.00
50356;BME280;36264;51.296;-0.602;2023-01-01T08:22:29;100668.63;;;13.27;100.00
50356;BME280;36264;51.296;-0.602;2023-01-01T08:24:54;100669.63;;;13.25;100.00
50356;BME280;36264;51.296;-0.602;2023-01-01T08:27:19;100680.69;;;13.30;100.00
50356;BME280;36264;51.296;-0.602;2023-01-01T08:29:45;100680.94;;;13.23;100.00
50356;BME280;36264;51.296;-0.602;2023-01-01T08:32:11;100686.88;;;13.27;100.00
50356;BME280;36264;51.296;-0.602;2023-01-01T08:34:37;100698.31;;;13.25;100.00
50356;BME280;36264;51.296;-0.602;2023-01-01T08:37:02;100687.59;;;13.31;100.00
50356;BME280;36264;51.296;-0.602;2023-01-01T08:39:28;100677.25;;;13.29;100.00
50356;BME280;36264;51.296;-0.602;2023-01-01T08:41:53;100679.97;;;13.26;100.00
50356;BME280;36264;51.296;-0.602;2023-01-01T08:44:19;100687.88;;;13.25;100.00
50356;BME280;36264;51.296;-0.602;2023-01-01T08:46:44;100692.03;;;13.29;100.00
50356;BME280;36264;51.296;-0.602;2023-01-01T08:49:10;100677.19;;;13.31;100.00
50356;BME280;36264;51.296;-0.602;2023-01-01T08:51:35;100691.03;;;13.33;100.00
50356;BME280;36264;51.296;-0.602;2023-01-01T08:54:01;100686.66;;;13.33;100.00
50356;BME280;36264;51.296;-0.602;2023-01-01T08:56:26;100704.91;;;13.33;100.00
50356;BME280;36264;51.296;-0.602;2023-01-01T08:58:51;100687.53;;;13.32;100.00
50356;BME280;36264;51.296;-0.602;2023-01-01T09:01:17;100691.19;;;13.28;100.00
50356;BME280;36264;51.296;-0.602;2023-01-01T09:03:46;100685.75;;;13.34;100.00
50356;BME280;36264;51.296;-0.602;2023-01-01T09:06:11;100679.53;;;13.37;100.00
50356;BME280;36264;51.296;-0.602;2023-01-01T09:08:37;100688.16;;;13.39;100.00
50356;BME280;36264;51.296;-0.602;2023-01-01T09:11:03;100695.66;;;13.47;100.00
50356;BME280;36264;51.296;-0.602;2023-01-01T09:13:29;100711.22;;;13.48;100.00
50356;BME280;36264;51.296;-0.602;2023-01-01T09:15:55;100706.66;;;13.53;100.00
50356;BME280;36264;51.296;-0.602;2023-01-01T09:18:21;100706.09;;;13.47;100.00
50356;BME280;36264;51.296;-0.602;2023-01-01T09:20:47;100706.84;;;13.49;100.00
50356;BME280;36264;51.296;-0.602;2023-01-01T09:23:12;100715.31;;;13.54;100.00
50356;BME280;36264;51.296;-0.602;2023-01-01T09:25:38;100724.34;;;13.47;100.00
50356;BME280;36264;51.296;-0.602;2023-01-01T09:28:06;100736.78;;;13.61;100.00
50356;BME280;36264;51.296;-0.602;2023-01-01T09:30:32;100743.00;;;13.58;100.00
50356;BME280;36264;51.296;-0.602;2023-01-01T09:32:57;100750.88;;;13.56;100.00
50356;BME280;36264;51.296;-0.602;2023-01-01T09:35:23;100759.47;;;13.58;100.00
50356;BME280;36264;51.296;-0.602;2023-01-01T09:37:48;100776.84;;;13.59;100.00
50356;BME280;36264;51.296;-0.602;2023-01-01T09:45:40;100780.22;;;13.82;100.00
50356;BME280;36264;51.296;-0.602;2023-01-01T09:48:12;100776.63;;;13.85;100.00
50356;BME280;36264;51.296;-0.602;2023-01-01T09:50:41;100781.97;;;13.82;100.00
50356;BME280;36264;51.296;-0.602;2023-01-01T09:55:52;100774.25;;;13.99;100.00
50356;BME280;36264;51.296;-0.602;2023-01-01T09:58:24;100768.16;;;13.99;100.00
50356;BME280;36264;51.296;-0.602;2023-01-01T10:00:53;100762.72;;;14.03;100.00
50356;BME280;36264;51.296;-0.602;2023-01-01T10:03:46;100774.41;;;14.15;100.00
50356;BME280;36264;51.296;-0.602;2023-01-01T10:06:32;100768.84;;;14.23;100.00
50356;BME280;36264;51.296;-0.602;2023-01-01T10:09:17;100780.88;;;14.25;100.00
50356;BME280;36264;51.296;-0.602;2023-01-01T10:14:35;100783.34;;;14.09;100.00
50356;BME280;36264;51.296;-0.602;2023-01-01T10:17:07;100788.09;;;14.20;100.00
50356;BME280;36264;51.296;-0.602;2023-01-01T10:19:42;100784.84;;;14.34;100.00
50356;BME280;36264;51.296;-0.602;2023-01-01T10:22:14;100787.88;;;14.44;100.00
50356;BME280;36264;51.296;-0.602;2023-01-01T10:25:00;100787.47;;;14.53;100.00
50356;BME280;36264;51.296;-0.602;2023-01-01T10:27:43;100789.13;;;14.54;100.00
50356;BME280;36264;51.296;-0.602;2023-01-01T10:30:16;100789.78;;;14.59;100.00
50356;BME280;36264;51.296;-0.602;2023-01-01T10:32:41;100789.59;;;14.45;100.00
50356;BME280;36264;51.296;-0.602;2023-01-01T10:35:14;100792.91;;;14.67;100.00
50356;BME280;36264;51.296;-0.602;2023-01-01T10:37:41;100782.59;;;14.64;100.00
50356;BME280;36264;51.296;-0.602;2023-01-01T10:40:21;100794.00;;;14.81;100.00
50356;BME280;36264;51.296;-0.602;2023-01-01T10:42:52;100790.56;;;14.80;100.00
50356;BME280;36264;51.296;-0.602;2023-01-01T10:45:23;100794.72;;;14.84;100.00
50356;BME280;36264;51.296;-0.602;2023-01-01T10:48:11;100794.03;;;14.98;100.00
50356;BME280;36264;51.296;-0.602;2023-01-01T10:56:11;100806.81;;;15.04;100.00
50356;BME280;36264;51.296;-0.602;2023-01-01T10:58:44;100798.06;;;15.06;100.00
50356;BME280;36264;51.296;-0.602;2023-01-01T11:03:58;100791.81;;;15.08;100.00
50356;BME280;36264;51.296;-0.602;2023-01-01T11:06:41;100784.69;;;15.12;100.00
50356;BME280;36264;51.296;-0.602;2023-01-01T11:09:40;100786.06;;;15.19;100.00
50356;BME280;36264;51.296;-0.602;2023-01-01T11:12:06;100790.44;;;15.01;100.00
50356;BME280;36264;51.296;-0.602;2023-01-01T11:15:18;100784.69;;;15.12;100.00
50356;BME280;36264;51.296;-0.602;2023-01-01T11:17:44;100781.03;;;14.97;100.00
50356;BME280;36264;51.296;-0.602;2023-01-01T11:20:16;100778.22;;;15.19;100.00
50356;BME280;36264;51.296;-0.602;2023-01-01T11:22:44;100766.97;;;15.17;100.00
50356;BME280;36264;51.296;-0.602;2023-01-01T11:25:29;100769.16;;;15.26;100.00
50356;BME280;36264;51.296;-0.602;2023-01-01T11:28:20;100760.91;;;15.34;100.00
50356;BME280;36264;51.296;-0.602;2023-01-01T11:33:36;100769.00;;;15.29;100.00
50356;BME280;36264;51.296;-0.602;2023-01-01T11:36:04;100762.13;;;15.27;100.00
50356;BME280;36264;51.296;-0.602;2023-01-01T11:38:30;100762.13;;;15.09;100.00
50356;BME280;36264;51.296;-0.602;2023-01-01T11:41:03;100766.38;;;15.29;100.00
50356;BME280;36264;51.296;-0.602;2023-01-01T11:43:38;100770.81;;;15.27;100.00
50356;BME280;36264;51.296;-0.602;2023-01-01T11:46:07;100772.00;;;15.21;100.00
50356;BME280;36264;51.296;-0.602;2023-01-01T11:48:34;100772.59;;;15.09;100.00
50356;BME280;36264;51.296;-0.602;2023-01-01T11:51:02;100776.63;;;15.16;100.00
50356;BME280;36264;51.296;-0.602;2023-01-01T11:53:31;100779.00;;;15.21;100.00
50356;BME280;36264;51.296;-0.602;2023-01-01T11:56:18;100774.16;;;15.31;100.00
50356;BME280;36264;51.296;-0.602;2023-01-01T11:58:59;100777.53;;;15.33;100.00
50356;BME280;36264;51.296;-0.602;2023-01-01T12:01:38;100772.38;;;15.31;100.00
50356;BME280;36264;51.296;-0.602;2023-01-01T12:06:35;100767.06;;;15.15;100.00
50356;BME280;36264;51.296;-0.602;2023-01-01T12:09:13;100757.13;;;15.39;100.00
50356;BME280;36264;51.296;-0.602;2023-01-01T12:17:20;100748.81;;;15.49;100.00
50356;BME280;36264;51.296;-0.602;2023-01-01T12:20:11;100759.78;;;15.55;100.00
50356;BME280;36264;51.296;-0.602;2023-01-01T12:22:38;100754.78;;;15.51;100.00
50356;BME280;36264;51.296;-0.602;2023-01-01T12:25:04;100747.09;;;15.48;100.00
50356;BME280;36264;51.296;-0.602;2023-01-01T12:28:01;100747.78;;;15.69;100.00
50356;BME280;36264;51.296;-0.602;2023-01-01T12:53:40;100730.59;;;15.81;100.00
50356;BME280;36264;51.296;-0.602;2023-01-01T12:58:49;100726.97;;;15.83;100.00
50356;BME280;36264;51.296;-0.602;2023-01-01T13:01:29;100735.75;;;15.82;100.00
50356;BME280;36264;51.296;-0.602;2023-01-01T13:04:06;100732.22;;;15.66;100.00
50356;BME280;36264;51.296;-0.602;2023-01-01T13:09:06;100716.34;;;15.86;100.00
50356;BME280;36264;51.296;-0.602;2023-01-01T13:11:32;100715.09;;;15.76;100.00
50356;BME280;36264;51.296;-0.602;2023-01-01T13:13:58;100713.19;;;15.62;100.00
50356;BME280;36264;51.296;-0.602;2023-01-01T13:19:00;100712.94;;;15.67;100.00
50356;BME280;36264;51.296;-0.602;2023-01-01T13:21:26;100717.66;;;15.60;100.00
50356;BME280;36264;51.296;-0.602;2023-01-01T13:23:53;100720.81;;;15.67;100.00
50356;BME280;36264;51.296;-0.602;2023-01-01T13:34:58;100710.59;;;15.80;100.00
50356;BME280;36264;51.296;-0.602;2023-01-01T13:37:29;100703.25;;;15.69;100.00
50356;BME280;36264;51.296;-0.602;2023-01-01T13:40:03;100699.38;;;15.76;100.00
50356;BME280;36264;51.296;-0.602;2023-01-01T13:45:38;100696.00;;;15.74;100.00
50356;BME280;36264;51.296;-0.602;2023-01-01T13:51:05;100684.56;;;15.77;100.00
50356;BME280;36264;51.296;-0.602;2023-01-01T13:57:02;100694.13;;;15.76;100.00
50356;BME280;36264;51.296;-0.602;2023-01-01T14:02:19;100692.06;;;15.83;100.00
50356;BME280;36264;51.296;-0.602;2023-01-01T14:10:32;100685.41;;;15.77;100.00
50356;BME280;36264;51.296;-0.602;2023-01-01T14:15:34;100682.03;;;15.57;100.00
50356;BME280;36264;51.296;-0.602;2023-01-01T14:18:03;100674.69;;;15.48;100.00
50356;BME280;36264;51.296;-0.602;2023-01-01T14:20:50;100673.31;;;15.57;100.00
50356;BME280;36264;51.296;-0.602;2023-01-01T14:23:34;100665.56;;;15.55;100.00
50356;BME280;36264;51.296;-0.602;2023-01-01T14:26:02;100663.50;;;15.45;100.00
50356;BME280;36264;51.296;-0.602;2023-01-01T14:28:32;100662.75;;;15.43;100.00
50356;BME280;36264;51.296;-0.602;2023-01-01T14:31:00;100663.16;;;15.35;100.00
50356;BME280;36264;51.296;-0.602;2023-01-01T14:33:32;100665.16;;;15.30;100.00
50356;BME280;36264;51.296;-0.602;2023-01-01T14:36:03;100654.22;;;15.39;100.00
50356;BME280;36264;51.296;-0.602;2023-01-01T14:38:42;100650.59;;;15.42;100.00
50356;BME280;36264;51.296;-0.602;2023-01-01T14:41:17;100650.75;;;15.38;100.00
50356;BME280;36264;51.296;-0.602;2023-01-01T14:43:44;100648.63;;;15.29;100.00